createdAt,value
2022-09-09T00:01:09.202Z,95323.38
2022-09-09T00:04:14.529Z,95327.88
2022-09-09T00:07:20.893Z,95327.91
2022-09-09T00:10:25.205Z,95323.22
2022-09-09T00:13:30.970Z,95327.00
2022-09-09T00:16:35.594Z,95326.97
2022-09-09T00:19:40.282Z,95316.81
2022-09-09T00:22:46.223Z,95313.63
2022-09-09T00:25:52.581Z,95317.41
2022-09-09T00:29:00.778Z,95305.31
2022-09-09T00:32:10.034Z,95301.16
2022-09-09T00:35:17.146Z,95301.53
2022-09-09T00:38:24.715Z,95307.81
2022-09-09T00:41:30.938Z,95304.19
2022-09-09T00:44:33.525Z,95307.31
2022-09-09T00:47:47.134Z,95297.66
2022-09-09T00:50:52.130Z,95299.22
2022-09-09T00:54:06.808Z,95293.53
2022-09-09T00:57:17.102Z,95276.78
2022-09-09T01:00:22.945Z,95281.84
2022-09-09T01:03:34.315Z,95296.69
2022-09-09T01:06:38.307Z,95301.06
2022-09-09T01:09:46.569Z,95299.31
2022-09-09T01:12:48.405Z,95306.50
2022-09-09T01:15:50.429Z,95306.72
2022-09-09T01:18:54.573Z,95301.66
2022-09-09T01:22:02.241Z,95297.78
2022-09-09T01:25:11.067Z,95301.97
2022-09-09T01:28:16.927Z,95302.03
2022-09-09T01:31:19.762Z,95300.91
2022-09-09T01:34:22.380Z,95310.94
2022-09-09T01:37:23.968Z,95301.41
2022-09-09T01:40:26.067Z,95310.16
2022-09-09T01:43:29.315Z,95302.06
2022-09-09T01:46:31.194Z,95302.84
2022-09-09T01:49:32.955Z,95304.47
2022-09-09T01:52:37.194Z,95298.94
2022-09-09T01:55:39.886Z,95305.34
2022-09-09T01:58:48.906Z,95293.13
2022-09-09T02:01:57.631Z,95290.59
2022-09-09T02:05:12.892Z,95285.75
2022-09-09T02:08:18.509Z,95289.84
2022-09-09T02:11:20.756Z,95282.81
2022-09-09T02:14:26.138Z,95285.50
2022-09-09T02:17:32.149Z,95287.38
2022-09-09T02:20:35.184Z,95277.91
2022-09-09T02:23:37.799Z,95285.28
2022-09-09T02:26:41.361Z,95281.41
2022-09-09T02:29:44.833Z,95276.25
2022-09-09T02:32:46.876Z,95276.97
2022-09-09T02:35:49.489Z,95288.00
2022-09-09T02:38:51.147Z,95291.25
2022-09-09T02:41:52.838Z,95287.66
2022-09-09T02:44:55.921Z,95298.00
2022-09-09T02:48:02.037Z,95301.97
2022-09-09T02:51:07.105Z,95300.69
2022-09-09T02:54:11.838Z,95308.44
2022-09-09T02:57:17.023Z,95296.00
2022-09-09T03:00:25.067Z,95296.56
2022-09-09T03:03:26.786Z,95300.31
2022-09-09T03:06:28.411Z,95298.94
2022-09-09T03:09:30.220Z,95293.03
2022-09-09T03:12:31.780Z,95296.44
2022-09-09T03:15:35.011Z,95294.50
2022-09-09T03:18:36.783Z,95297.13
2022-09-09T03:21:38.562Z,95296.75
2022-09-09T03:24:40.189Z,95285.88
2022-09-09T03:27:41.773Z,95292.53
2022-09-09T03:30:45.016Z,95301.44
2022-09-09T03:33:46.652Z,95295.59
2022-09-09T03:36:48.291Z,95298.75
2022-09-09T03:39:49.925Z,95301.06
2022-09-09T03:42:51.685Z,95300.59
2022-09-09T03:45:54.949Z,95298.69
2022-09-09T03:48:56.759Z,95295.91
2022-09-09T03:51:58.435Z,95288.91
2022-09-09T03:55:00.066Z,95299.69
2022-09-09T03:58:01.701Z,95294.97
2022-09-09T04:01:05.481Z,95289.63
2022-09-09T04:04:07.170Z,95284.63
2022-09-09T04:07:08.839Z,95280.00
2022-09-09T04:10:11.708Z,95274.97
2022-09-09T04:13:13.696Z,95263.69
2022-09-09T04:16:16.807Z,95272.31
2022-09-09T04:19:18.547Z,95279.66
2022-09-09T04:22:20.140Z,95286.66
2022-09-09T04:25:21.778Z,95281.63
2022-09-09T04:28:24.486Z,95272.66
2022-09-09T04:31:27.593Z,95283.16
2022-09-09T04:34:29.522Z,95282.69
2022-09-09T04:37:31.595Z,95281.63
2022-09-09T04:40:33.429Z,95283.03
2022-09-09T04:43:35.113Z,95280.97
2022-09-09T04:46:38.168Z,95283.44
2022-09-09T04:49:39.780Z,95289.88
2022-09-09T04:52:41.388Z,95289.81
2022-09-09T04:55:43.000Z,95282.84
2022-09-09T04:58:45.795Z,95283.19
2022-09-09T05:01:49.077Z,95298.56
2022-09-09T05:04:50.738Z,95302.31
2022-09-09T05:07:52.358Z,95296.00
2022-09-09T05:10:53.978Z,95287.00
2022-09-09T05:13:55.586Z,95302.88
2022-09-09T05:16:58.545Z,95302.41
2022-09-09T05:20:00.308Z,95293.38
2022-09-09T05:23:01.849Z,95296.38
2022-09-09T05:26:04.164Z,95299.09
2022-09-09T05:29:05.773Z,95296.06
2022-09-09T05:32:11.482Z,95299.47
2022-09-09T05:35:16.545Z,95294.81
2022-09-09T05:38:18.150Z,95297.13
2022-09-09T05:41:19.761Z,95298.63
2022-09-09T05:44:21.419Z,95292.00
2022-09-09T05:47:24.441Z,95298.19
2022-09-09T05:50:31.046Z,95297.31
2022-09-09T05:53:33.490Z,95302.91
2022-09-09T05:56:35.142Z,95303.22
2022-09-09T05:59:37.753Z,95291.31
2022-09-09T06:02:40.848Z,95280.41
2022-09-09T06:05:42.563Z,95272.56
2022-09-09T06:08:44.943Z,95270.88
2022-09-09T06:11:48.136Z,95271.59
2022-09-09T06:14:49.744Z,95275.38
2022-09-09T06:17:56.360Z,95275.19
2022-09-09T06:20:58.646Z,95297.50
2022-09-09T06:24:01.349Z,95293.06
2022-09-09T06:27:03.110Z,95291.44
2022-09-09T06:30:05.037Z,95284.84
2022-09-09T06:33:08.031Z,95286.72
2022-09-09T06:36:12.151Z,95294.34
2022-09-09T06:39:14.992Z,95284.09
2022-09-09T06:42:17.224Z,95287.81
2022-09-09T06:45:18.833Z,95288.63
2022-09-09T06:48:21.973Z,95301.63
2022-09-09T06:51:24.463Z,95292.66
2022-09-09T06:54:26.323Z,95293.41
2022-09-09T06:57:36.951Z,95290.63
2022-09-09T07:00:39.243Z,95283.31
2022-09-09T07:03:42.957Z,95277.09
2022-09-09T07:06:45.409Z,95279.31
2022-09-09T07:09:47.092Z,95290.06
2022-09-09T07:12:51.495Z,95286.59
2022-09-09T07:15:53.139Z,95278.19
2022-09-09T07:18:56.607Z,95287.75
2022-09-09T07:21:58.236Z,95289.22
2022-09-09T07:24:59.835Z,95290.81
2022-09-09T07:28:01.638Z,95290.81
2022-09-09T07:31:03.562Z,95291.28
2022-09-09T07:34:06.644Z,95302.16
2022-09-09T07:37:08.328Z,95316.06
2022-09-09T07:40:10.005Z,95308.59
2022-09-09T07:43:14.370Z,95316.38
2022-09-09T07:46:19.797Z,95323.06
2022-09-09T07:49:28.525Z,95329.94
2022-09-09T07:52:31.466Z,95330.97
2022-09-09T07:55:33.083Z,95337.06
2022-09-09T07:58:38.271Z,95338.84
2022-09-09T08:01:41.334Z,95346.41
2022-09-09T08:04:44.454Z,95342.91
2022-09-09T08:07:46.085Z,95339.78
2022-09-09T08:10:47.754Z,95338.56
2022-09-09T08:13:53.992Z,95345.16
2022-09-09T08:16:57.690Z,95347.09
2022-09-09T08:20:00.737Z,95342.84
2022-09-09T08:23:02.341Z,95345.09
2022-09-09T08:26:04.693Z,95354.38
2022-09-09T08:29:07.568Z,95359.38
2022-09-09T08:32:09.156Z,95361.28
2022-09-09T08:35:12.172Z,95362.03
2022-09-09T08:38:13.756Z,95360.78
2022-09-09T08:41:35.989Z,95360.78
2022-09-09T08:44:48.603Z,95359.97
2022-09-09T08:47:56.140Z,95363.78
2022-09-09T08:50:59.241Z,95370.44
2022-09-09T08:54:03.064Z,95372.03
2022-09-09T08:57:08.591Z,95372.41
2022-09-09T09:00:11.247Z,95370.66
2022-09-09T09:03:16.954Z,95374.97
2022-09-09T09:06:27.622Z,95374.69
2022-09-09T09:09:32.770Z,95383.56
2022-09-09T09:12:37.579Z,95386.66
2022-09-09T09:15:39.588Z,95389.38
2022-09-09T09:18:41.309Z,95382.75
2022-09-09T09:21:45.164Z,95382.69
2022-09-09T09:24:52.665Z,95372.47
2022-09-09T09:27:59.093Z,95371.34
2022-09-09T09:31:04.327Z,95372.81
2022-09-09T09:34:05.967Z,95384.75
2022-09-09T09:37:13.523Z,95383.63
2022-09-09T09:40:16.294Z,95384.72
2022-09-09T09:43:21.128Z,95379.25
2022-09-09T09:46:23.956Z,95378.53
2022-09-09T09:49:25.683Z,95365.84
2022-09-09T09:52:29.568Z,95372.31
2022-09-09T09:55:32.551Z,95371.88
2022-09-09T09:58:35.248Z,95369.38
2022-09-09T10:01:37.337Z,95382.63
2022-09-09T10:04:42.958Z,95371.41
2022-09-09T10:07:47.406Z,95372.53
2022-09-09T10:10:53.703Z,95371.34
2022-09-09T10:14:01.580Z,95377.53
2022-09-09T10:17:14.228Z,95396.50
2022-09-09T10:20:22.037Z,95401.88
2022-09-09T10:23:35.696Z,95394.03
2022-09-09T10:26:41.407Z,95402.28
2022-09-09T10:29:52.408Z,95398.66
2022-09-09T10:33:02.518Z,95396.56
2022-09-09T10:36:13.011Z,95385.50
2022-09-09T10:39:24.724Z,95381.97
2022-09-09T10:42:31.912Z,95380.22
2022-09-09T10:45:38.314Z,95378.53
2022-09-09T10:48:57.647Z,95376.44
2022-09-09T10:52:04.196Z,95376.78
2022-09-09T10:55:13.008Z,95381.28
2022-09-09T10:58:21.213Z,95386.38
2022-09-09T11:01:31.932Z,95381.19
2022-09-09T11:04:41.458Z,95372.47
2022-09-09T11:07:50.230Z,95367.22
2022-09-09T11:11:01.232Z,95369.66
2022-09-09T11:14:06.607Z,95378.47
2022-09-09T11:17:16.226Z,95389.50
2022-09-09T11:20:21.390Z,95396.53
2022-09-09T11:23:29.029Z,95396.69
2022-09-09T11:26:37.729Z,95395.63
2022-09-09T11:29:56.774Z,95400.72
2022-09-09T11:33:24.628Z,95405.78
2022-09-09T11:36:48.357Z,95405.84
2022-09-09T11:40:16.577Z,95412.63
2022-09-09T11:43:25.104Z,95405.34
2022-09-09T11:46:35.338Z,95405.50
2022-09-09T11:49:45.715Z,95409.28
2022-09-09T11:52:52.118Z,95411.44
2022-09-09T11:56:11.216Z,95399.91
2022-09-09T11:59:23.329Z,95390.44
2022-09-09T12:02:27.491Z,95387.06
2022-09-09T12:05:39.342Z,95382.88
2022-09-09T12:08:44.136Z,95386.72
2022-09-09T12:11:46.006Z,95373.84
2022-09-09T12:14:57.683Z,95376.31
2022-09-09T12:18:03.289Z,95378.28
2022-09-09T12:21:08.802Z,95371.84
2022-09-09T12:24:10.675Z,95383.63
2022-09-09T12:27:15.783Z,95409.75
2022-09-09T12:30:18.973Z,95410.63
2022-09-09T12:33:20.722Z,95403.81
2022-09-09T12:36:24.845Z,95410.66
2022-09-09T12:39:30.683Z,95410.94
2022-09-09T12:42:32.456Z,95403.28
2022-09-09T12:45:35.447Z,95409.22
2022-09-09T12:48:38.305Z,95409.84
2022-09-09T12:51:39.955Z,95416.00
2022-09-09T12:54:45.088Z,95416.69
2022-09-09T12:57:46.817Z,95410.41
2022-09-09T13:00:53.902Z,95413.75
2022-09-09T13:03:55.876Z,95402.72
2022-09-09T13:07:06.496Z,95400.06
2022-09-09T13:10:13.255Z,95398.72
2022-09-09T13:13:22.014Z,95390.28
2022-09-09T13:16:27.239Z,95393.50
2022-09-09T13:19:30.497Z,95395.25
2022-09-09T13:22:34.227Z,95393.44
2022-09-09T13:25:36.255Z,95397.47
2022-09-09T13:28:39.494Z,95399.59
2022-09-09T13:31:42.580Z,95383.34
2022-09-09T13:34:51.723Z,95380.84
2022-09-09T13:37:53.363Z,95365.03
2022-09-09T13:40:56.332Z,95383.28
2022-09-09T13:43:58.108Z,95379.06
2022-09-09T13:47:10.043Z,95376.06
2022-09-09T13:50:19.857Z,95381.00
2022-09-09T13:53:21.436Z,95380.50
2022-09-09T13:56:23.065Z,95373.94
2022-09-09T13:59:28.073Z,95370.16
2022-09-09T14:02:41.145Z,95364.66
2022-09-09T14:05:42.895Z,95359.56
2022-09-09T14:08:44.597Z,95355.22
2022-09-09T14:11:46.270Z,95342.56
2022-09-09T14:14:47.876Z,95354.19
2022-09-09T14:17:50.912Z,95352.00
2022-09-09T14:20:52.628Z,95357.19
2022-09-09T14:23:54.372Z,95359.19
2022-09-09T14:26:56.435Z,95367.72
2022-09-09T14:29:58.059Z,95355.84
2022-09-09T14:33:01.615Z,95352.28
2022-09-09T14:36:04.815Z,95346.41
2022-09-09T14:39:06.422Z,95355.22
2022-09-09T14:42:08.120Z,95347.44
2022-09-09T14:45:10.249Z,95353.41
2022-09-09T14:48:13.764Z,95356.41
2022-09-09T14:51:16.766Z,95362.44
2022-09-09T14:54:18.441Z,95364.34
2022-09-09T14:57:20.064Z,95361.56
2022-09-09T15:00:21.881Z,95361.50
2022-09-09T15:03:25.068Z,95359.63
2022-09-09T15:06:27.587Z,95366.88
2022-09-09T15:09:29.223Z,95352.63
2022-09-09T15:12:30.822Z,95347.63
2022-09-09T15:15:33.948Z,95345.66
2022-09-09T15:18:36.941Z,95342.19
2022-09-09T15:21:38.718Z,95339.91
2022-09-09T15:24:40.336Z,95338.44
2022-09-09T15:27:41.933Z,95336.47
2022-09-09T15:30:43.556Z,95342.63
2022-09-09T15:33:49.332Z,95342.28
2022-09-09T15:36:50.973Z,95341.00
2022-09-09T15:39:52.734Z,95342.09
2022-09-09T15:42:54.390Z,95333.19
2022-09-09T15:46:00.250Z,95337.66
2022-09-09T15:49:06.068Z,95328.13
2022-09-09T15:52:07.831Z,95335.59
2022-09-09T15:55:09.445Z,95326.94
2022-09-09T15:58:11.023Z,95322.59
2022-09-09T16:01:12.723Z,95315.69
2022-09-09T16:04:15.819Z,95308.13
2022-09-09T16:07:17.419Z,95304.09
2022-09-09T16:10:19.044Z,95314.59
2022-09-09T16:13:20.694Z,95324.16
2022-09-09T16:16:23.195Z,95322.00
2022-09-09T16:19:26.221Z,95334.97
2022-09-09T16:22:27.846Z,95336.38
2022-09-09T16:25:29.495Z,95322.34
2022-09-09T16:28:31.134Z,95343.47
2022-09-09T16:31:33.005Z,95337.88
2022-09-09T16:34:36.227Z,95339.69
2022-09-09T16:37:37.861Z,95343.72
2022-09-09T16:40:39.756Z,95342.63
2022-09-09T16:43:41.923Z,95339.13
2022-09-09T16:46:44.253Z,95323.06
2022-09-09T16:49:47.335Z,95324.97
2022-09-09T16:52:48.892Z,95320.59
2022-09-09T16:55:50.497Z,95325.81
2022-09-09T16:58:52.812Z,95323.47
2022-09-09T17:01:54.534Z,95325.25
2022-09-09T17:04:57.653Z,95321.84
2022-09-09T17:07:59.316Z,95313.56
2022-09-09T17:11:00.944Z,95316.13
2022-09-09T17:14:02.574Z,95318.53
2022-09-09T17:17:24.721Z,95311.03
2022-09-09T17:20:27.481Z,95302.16
2022-09-09T17:23:29.257Z,95307.25
2022-09-09T17:26:31.765Z,95300.34
2022-09-09T17:29:33.426Z,95307.03
2022-09-09T17:32:35.015Z,95300.25
2022-09-09T17:35:38.071Z,95299.94
2022-09-09T17:38:39.908Z,95313.31
2022-09-09T17:41:41.707Z,95323.41
2022-09-09T17:44:43.339Z,95327.25
2022-09-09T17:47:44.913Z,95328.09
2022-09-09T17:50:47.925Z,95331.28
2022-09-09T17:53:50.271Z,95335.91
2022-09-09T17:56:52.009Z,95339.47
2022-09-09T17:59:53.646Z,95340.19
2022-09-09T18:02:55.369Z,95333.94
2022-09-09T18:06:01.607Z,95339.97
2022-09-09T18:09:05.241Z,95343.06
2022-09-09T18:12:07.084Z,95352.91
2022-09-09T18:15:09.042Z,95365.13
2022-09-09T18:18:10.640Z,95359.00
2022-09-09T18:21:13.750Z,95375.81
2022-09-09T18:24:16.291Z,95377.78
2022-09-09T18:27:18.216Z,95378.13
2022-09-09T18:30:20.726Z,95379.81
2022-09-09T18:33:22.525Z,95381.50
2022-09-09T18:36:26.800Z,95390.06
2022-09-09T18:39:29.617Z,95386.72
2022-09-09T18:42:31.593Z,95387.84
2022-09-09T18:45:35.562Z,95390.50
2022-09-09T18:48:37.710Z,95386.88
2022-09-09T18:51:41.615Z,95385.59
2022-09-09T18:54:43.558Z,95384.00
2022-09-09T18:57:46.770Z,95382.59
2022-09-09T19:00:48.826Z,95385.69
2022-09-09T19:03:51.108Z,95382.03
2022-09-09T19:06:54.502Z,95390.78
2022-09-09T19:09:56.113Z,95392.16
2022-09-09T19:12:58.024Z,95394.06
2022-09-09T19:16:03.089Z,95388.53
2022-09-09T19:19:05.759Z,95386.38
2022-09-09T19:22:09.027Z,95395.59
2022-09-09T19:25:11.037Z,95412.34
2022-09-09T19:28:12.911Z,95414.09
2022-09-09T19:31:14.729Z,95418.97
2022-09-09T19:34:16.526Z,95424.06
2022-09-09T19:37:19.661Z,95422.81
2022-09-09T19:40:24.394Z,95426.72
2022-09-09T19:43:27.321Z,95431.41
2022-09-09T19:46:29.652Z,95424.78
2022-09-09T19:49:31.542Z,95424.78
2022-09-09T19:52:34.533Z,95423.16
2022-09-09T19:55:38.796Z,95413.47
2022-09-09T19:58:41.047Z,95398.16
2022-09-09T20:01:43.787Z,95393.50
2022-09-09T20:04:45.551Z,95384.50
2022-09-09T20:07:48.561Z,95380.91
2022-09-09T20:10:50.837Z,95383.72
2022-09-09T20:13:52.951Z,95391.25
2022-09-09T20:16:54.626Z,95393.56
2022-09-09T20:19:56.278Z,95408.44
2022-09-09T20:22:59.345Z,95418.16
2022-09-09T20:26:01.551Z,95428.47
2022-09-09T20:29:04.000Z,95427.06
2022-09-09T20:32:05.775Z,95425.88
2022-09-09T20:35:07.710Z,95425.31
2022-09-09T20:38:10.791Z,95424.13
2022-09-09T20:41:13.219Z,95416.56
2022-09-09T20:44:15.605Z,95411.06
2022-09-09T20:47:17.328Z,95403.81
2022-09-09T20:50:18.974Z,95403.81
2022-09-09T20:53:21.944Z,95402.66
2022-09-09T20:56:23.531Z,95404.50
2022-09-09T20:59:26.348Z,95400.94
2022-09-09T21:02:27.958Z,95407.84
2022-09-09T21:05:30.139Z,95411.34
2022-09-09T21:08:33.845Z,95409.09
2022-09-09T21:11:35.650Z,95408.88
2022-09-09T21:14:37.294Z,95411.69
2022-09-09T21:17:38.919Z,95416.59
2022-09-09T21:20:40.781Z,95417.34
2022-09-09T21:23:43.755Z,95425.88
2022-09-09T21:26:45.410Z,95423.28
2022-09-09T21:29:47.027Z,95420.38
2022-09-09T21:32:48.639Z,95419.38
2022-09-09T21:35:50.493Z,95424.06
2022-09-09T21:38:53.487Z,95425.34
2022-09-09T21:41:55.129Z,95429.06
2022-09-09T21:44:56.790Z,95429.03
2022-09-09T21:47:58.397Z,95425.13
2022-09-09T21:51:02.308Z,95425.53
2022-09-09T21:54:05.851Z,95418.47
2022-09-09T21:57:07.465Z,95431.97
2022-09-09T22:00:09.664Z,95426.81
2022-09-09T22:03:12.066Z,95427.28
2022-09-09T22:06:15.075Z,95431.44
2022-09-09T22:09:18.099Z,95454.94
2022-09-09T22:12:19.840Z,95450.19
2022-09-09T22:15:21.717Z,95453.38
2022-09-09T22:18:23.419Z,95451.22
2022-09-09T22:21:29.755Z,95458.50
2022-09-09T22:24:32.770Z,95453.66
2022-09-09T22:27:34.466Z,95449.25
2022-09-09T22:30:36.445Z,95434.78
2022-09-09T22:33:38.027Z,95444.38
2022-09-09T22:36:39.650Z,95442.78
2022-09-09T22:39:42.953Z,95444.41
2022-09-09T22:42:45.412Z,95462.69
2022-09-09T22:45:49.122Z,95466.34
2022-09-09T22:48:50.736Z,95450.75
2022-09-09T22:51:52.393Z,95449.53
2022-09-09T22:54:55.406Z,95437.59
2022-09-09T22:57:57.291Z,95432.59
2022-09-09T23:00:59.397Z,95431.25
2022-09-09T23:04:01.028Z,95423.44
2022-09-09T23:07:02.694Z,95435.00
2022-09-09T23:10:06.278Z,95438.56
2022-09-09T23:13:07.906Z,95414.47
2022-09-09T23:16:10.391Z,95410.41
2022-09-09T23:19:13.448Z,95411.53
2022-09-09T23:22:15.090Z,95413.31
2022-09-09T23:25:18.139Z,95410.22
2022-09-09T23:28:19.912Z,95413.41
2022-09-09T23:31:22.273Z,95401.38
2022-09-09T23:34:23.965Z,95414.75
2022-09-09T23:37:25.696Z,95419.53
2022-09-09T23:40:28.684Z,95410.47
2022-09-09T23:43:30.387Z,95415.56
2022-09-09T23:46:33.087Z,95417.13
2022-09-09T23:49:35.384Z,95418.31
2022-09-09T23:52:37.042Z,95405.94
2022-09-09T23:55:40.152Z,95412.44
2022-09-09T23:58:41.829Z,95420.22
